createdAt,value
2018-12-25T00:00:27.562Z,22.3
2018-12-25T00:01:16.637Z,22.3
2018-12-25T00:02:07.262Z,22.3
2018-12-25T00:02:57.629Z,22.3
2018-12-25T00:03:46.805Z,22.4
2018-12-25T00:04:37.162Z,22.4
2018-12-25T00:05:27.725Z,22.4
2018-12-25T00:06:16.692Z,22.4
2018-12-25T00:07:07.952Z,22.4
2018-12-25T00:07:57.887Z,22.5
2018-12-25T00:08:47.427Z,22.5
2018-12-25T00:09:37.339Z,22.6
2018-12-25T00:10:27.909Z,22.6
2018-12-25T00:11:17.330Z,22.6
2018-12-25T00:12:08.069Z,22.6
2018-12-25T00:12:57.264Z,22.6
2018-12-25T00:13:47.736Z,22.6
2018-12-25T00:14:38.129Z,22.7
2018-12-25T00:32:47.760Z,22.4
2018-12-25T00:33:36.990Z,22.4
2018-12-25T00:34:26.767Z,22.4
2018-12-25T00:35:17.045Z,22.4
2018-12-25T00:36:06.848Z,22.4
2018-12-25T00:36:56.902Z,22.4
2018-12-25T00:37:47.307Z,22.4
2018-12-25T00:38:37.312Z,22.4
2018-12-25T00:39:27.202Z,22.4
2018-12-25T00:40:17.670Z,22.5
2018-12-25T00:41:07.484Z,22.5
2018-12-25T00:41:57.801Z,22.5
2018-12-25T00:42:48.400Z,22.5
2018-12-25T00:43:36.082Z,22.4
2018-12-25T00:44:27.711Z,22.4
2018-12-25T00:45:20.332Z,22.3
2018-12-25T00:46:08.084Z,22.3
2018-12-25T00:46:57.877Z,22.3
2018-12-25T00:47:48.723Z,22.3
2018-12-25T00:48:38.546Z,22.2
2018-12-25T00:49:28.029Z,22.2
2018-12-25T00:50:18.686Z,22.2
2018-12-25T00:51:08.219Z,22.2
2018-12-25T00:51:58.281Z,22.2
2018-12-25T00:52:49.186Z,22.2
2018-12-25T00:53:38.343Z,22.2
2018-12-25T00:54:28.973Z,22.2
2018-12-25T00:55:18.153Z,22.3
2018-12-25T00:56:08.503Z,22.3
2018-12-25T00:56:58.014Z,22.3
2018-12-25T00:57:48.131Z,22.3
2018-12-25T00:58:39.303Z,22.3
2018-12-25T00:59:28.558Z,22.4
2018-12-25T01:00:18.228Z,22.4
2018-12-25T01:01:08.853Z,22.4
2018-12-25T01:01:58.089Z,22.4
2018-12-25T01:02:48.411Z,22.4
2018-12-25T01:03:38.978Z,22.5
2018-12-25T01:04:29.404Z,22.5
2018-12-25T01:05:18.855Z,22.6
2018-12-25T01:06:09.363Z,22.6
2018-12-25T01:06:58.693Z,22.6
2018-12-25T01:07:49.385Z,22.6
2018-12-25T01:08:39.370Z,22.6
2018-12-25T01:09:29.153Z,22.6
2018-12-25T01:10:20.058Z,22.6
2018-12-25T01:11:10.180Z,22.7
2018-12-25T01:11:59.903Z,22.7
2018-12-25T01:12:49.925Z,22.7
2018-12-25T01:13:39.702Z,22.7
2018-12-25T01:14:29.513Z,22.6
2018-12-25T01:15:19.833Z,22.6
2018-12-25T01:16:09.433Z,22.6
2018-12-25T01:16:59.687Z,22.6
2018-12-25T01:17:49.732Z,22.6
2018-12-25T01:18:39.870Z,22.6
2018-12-25T01:19:30.369Z,22.6
2018-12-25T01:20:20.467Z,22.5
2018-12-25T01:21:10.252Z,22.5
2018-12-25T01:21:59.452Z,22.5
2018-12-25T01:22:50.627Z,22.4
2018-12-25T01:23:40.657Z,22.4
2018-12-25T01:24:30.782Z,22.4
2018-12-25T01:25:20.795Z,22.4
2018-12-25T01:26:10.877Z,22.4
2018-12-25T01:27:01.195Z,22.4
2018-12-25T01:27:51.263Z,22.4
2018-12-25T01:28:41.052Z,22.4
2018-12-25T01:29:31.452Z,22.4
2018-12-25T01:30:21.400Z,22.4
2018-12-25T01:31:11.272Z,22.4
2018-12-25T01:32:01.267Z,22.4
2018-12-25T01:32:51.619Z,22.5
2018-12-25T01:33:40.612Z,22.5
2018-12-25T01:34:31.196Z,22.5
2018-12-25T01:35:20.641Z,22.5
2018-12-25T01:36:11.557Z,22.6
2018-12-25T01:37:01.157Z,22.6
2018-12-25T01:37:50.646Z,22.6
2018-12-25T01:38:41.236Z,22.6
2018-12-25T01:39:30.994Z,22.6
2018-12-25T01:40:20.966Z,22.6
2018-12-25T01:41:11.673Z,22.6
2018-12-25T01:42:01.946Z,22.7
2018-12-25T01:42:51.192Z,22.7
2018-12-25T01:43:42.023Z,22.7
2018-12-25T01:44:31.922Z,22.8
2018-12-25T01:45:21.889Z,22.8
2018-12-25T01:46:11.953Z,22.8
2018-12-25T01:47:02.001Z,22.8
2018-12-25T01:47:51.791Z,22.8
2018-12-25T01:48:42.378Z,22.8
2018-12-25T01:49:39.183Z,22.8
2018-12-25T01:50:22.768Z,22.7
2018-12-25T01:51:12.363Z,22.8
2018-12-25T01:52:02.922Z,22.7
2018-12-25T01:52:53.003Z,22.6
2018-12-25T01:53:41.910Z,22.6
2018-12-25T01:54:32.505Z,22.6
2018-12-25T01:55:22.362Z,22.6
2018-12-25T01:56:12.183Z,22.6
2018-12-25T01:57:02.536Z,22.6
2018-12-25T01:57:52.464Z,22.5
2018-12-25T01:58:42.544Z,22.4
2018-12-25T01:59:32.598Z,22.4
2018-12-25T02:00:23.735Z,22.4
2018-12-25T02:01:13.257Z,22.4
2018-12-25T02:02:03.903Z,22.4
2018-12-25T02:02:53.082Z,22.4
2018-12-25T02:03:43.449Z,22.4
2018-12-25T02:04:33.484Z,22.4
2018-12-25T02:05:23.029Z,22.4
2018-12-25T02:06:14.015Z,22.4
2018-12-25T02:07:03.366Z,22.5
2018-12-25T02:07:53.442Z,22.4
2018-12-25T02:08:43.782Z,22.5
2018-12-25T02:09:33.829Z,22.6
2018-12-25T02:10:23.056Z,22.5
2018-12-25T02:11:14.249Z,22.6
2018-12-25T02:12:04.094Z,22.6
2018-12-25T02:12:53.231Z,22.6
2018-12-25T02:13:43.964Z,22.6
2018-12-25T02:14:33.409Z,22.6
2018-12-25T02:15:24.223Z,22.6
2018-12-25T02:16:13.447Z,22.6
2018-12-25T02:17:04.078Z,22.6
2018-12-25T02:17:54.406Z,22.7
2018-12-25T02:18:43.891Z,22.8
2018-12-25T02:19:41.788Z,22.8
2018-12-25T02:20:24.316Z,22.8
2018-12-25T02:21:14.902Z,22.8
2018-12-25T02:22:04.503Z,22.8
2018-12-25T02:22:54.504Z,22.8
2018-12-25T02:23:45.185Z,22.7
2018-12-25T02:24:34.323Z,22.6
2018-12-25T02:25:24.725Z,22.6
2018-12-25T02:26:14.986Z,22.5
2018-12-25T02:27:05.119Z,22.4
2018-12-25T02:27:55.376Z,22.4
2018-12-25T02:28:45.163Z,22.4
2018-12-25T02:29:35.173Z,22.4
2018-12-25T02:30:25.629Z,22.4
2018-12-25T02:31:15.249Z,22.3
2018-12-25T02:32:05.140Z,22.4
2018-12-25T02:32:55.680Z,22.4
2018-12-25T02:33:45.262Z,22.4
2018-12-25T02:34:35.900Z,22.4
2018-12-25T02:35:24.914Z,22.4
2018-12-25T02:36:16.231Z,22.4
2018-12-25T02:37:04.930Z,22.4
2018-12-25T02:37:56.115Z,22.5
2018-12-25T02:38:45.705Z,22.5
2018-12-25T02:39:35.656Z,22.5
2018-12-25T02:40:24.912Z,22.5
2018-12-25T02:41:15.905Z,22.6
2018-12-25T02:42:05.563Z,22.6
2018-12-25T02:42:55.762Z,22.6
2018-12-25T02:43:45.690Z,22.6
2018-12-25T02:44:36.360Z,22.6
2018-12-25T02:45:26.323Z,22.7
2018-12-25T02:46:16.699Z,22.7
2018-12-25T02:47:06.552Z,22.7
2018-12-25T02:47:55.989Z,22.8
2018-12-25T02:48:46.039Z,22.8
2018-12-25T02:49:35.347Z,22.8
2018-12-25T02:50:26.577Z,22.8
2018-12-25T02:51:17.149Z,22.7
2018-12-25T02:52:06.802Z,22.7
2018-12-25T02:52:56.061Z,22.7
2018-12-25T02:53:46.627Z,22.7
2018-12-25T02:54:36.474Z,22.6
2018-12-25T02:55:26.790Z,22.6
2018-12-25T02:56:16.863Z,22.6
2018-12-25T02:57:06.633Z,22.6
2018-12-25T02:57:57.498Z,22.6
2018-12-25T02:58:46.682Z,22.6
2018-12-25T02:59:37.030Z,22.5
2018-12-25T03:00:25.888Z,22.5
2018-12-25T03:01:16.858Z,22.5
2018-12-25T03:02:06.559Z,22.4
2018-12-25T03:02:57.804Z,22.4
2018-12-25T03:03:47.479Z,22.4
2018-12-25T03:04:37.501Z,22.4
2018-12-25T03:05:27.536Z,22.4
2018-12-25T03:06:17.666Z,22.4
2018-12-25T03:07:08.104Z,22.4
2018-12-25T03:07:57.309Z,22.4
2018-12-25T03:08:47.466Z,22.4
2018-12-25T03:09:38.138Z,22.4
2018-12-25T03:10:27.754Z,22.4
2018-12-25T03:11:18.138Z,22.5
2018-12-25T03:12:08.213Z,22.4
2018-12-25T03:12:58.495Z,22.5
2018-12-25T03:13:48.483Z,22.5
2018-12-25T03:14:38.410Z,22.6
2018-12-25T03:15:28.198Z,22.6
2018-12-25T03:16:18.513Z,22.6
2018-12-25T03:17:08.775Z,22.6
2018-12-25T03:17:58.604Z,22.6
2018-12-25T03:18:47.901Z,22.6
2018-12-25T03:19:38.401Z,22.6
2018-12-25T03:20:27.939Z,22.7
2018-12-25T03:21:19.095Z,22.7
2018-12-25T03:22:08.367Z,22.7
2018-12-25T03:22:58.175Z,22.8
2018-12-25T03:23:48.130Z,22.7
2018-12-25T03:24:38.786Z,22.7
2018-12-25T03:25:28.690Z,22.6
2018-12-25T03:26:18.572Z,22.5
2018-12-25T03:27:09.186Z,22.5
2018-12-25T03:27:59.377Z,22.5
2018-12-25T03:28:49.859Z,22.5
2018-12-25T03:29:38.870Z,22.6
2018-12-25T03:30:29.424Z,22.5
2018-12-25T03:31:19.713Z,22.5
2018-12-25T03:32:10.388Z,22.5
2018-12-25T03:32:59.673Z,22.5
2018-12-25T03:33:49.645Z,22.4
2018-12-25T03:34:39.748Z,22.4
2018-12-25T03:35:29.299Z,22.4
2018-12-25T03:36:19.310Z,22.4
2018-12-25T03:37:09.451Z,22.4
2018-12-25T03:37:59.793Z,22.4
2018-12-25T03:38:49.581Z,22.4
2018-12-25T03:39:40.355Z,22.3
2018-12-25T03:40:30.387Z,22.3
2018-12-25T03:41:19.901Z,22.3
2018-12-25T03:42:10.338Z,22.3
2018-12-25T03:43:00.019Z,22.4
2018-12-25T03:43:50.102Z,22.4
2018-12-25T03:44:40.555Z,22.4
2018-12-25T03:45:29.913Z,22.4
2018-12-25T03:46:19.724Z,22.4
2018-12-25T03:47:10.372Z,22.4
2018-12-25T03:48:00.987Z,22.4
2018-12-25T03:48:50.714Z,22.4
2018-12-25T03:49:40.791Z,22.4
2018-12-25T03:50:31.099Z,22.5
2018-12-25T03:51:21.141Z,22.5
2018-12-25T03:52:11.364Z,22.5
2018-12-25T03:53:01.319Z,22.6
2018-12-25T03:53:50.565Z,22.6
2018-12-25T03:54:40.558Z,22.6
2018-12-25T03:55:31.388Z,22.6
2018-12-25T03:56:20.438Z,22.6
2018-12-25T03:57:10.720Z,22.6
2018-12-25T03:58:01.608Z,22.7
2018-12-25T03:58:51.128Z,22.6
2018-12-25T03:59:41.455Z,22.7
2018-12-25T04:00:31.333Z,22.7
2018-12-25T04:01:21.003Z,22.7
2018-12-25T04:02:11.388Z,22.7
2018-12-25T04:03:02.252Z,22.7
2018-12-25T04:03:51.778Z,22.6
2018-12-25T04:04:41.787Z,22.6
2018-12-25T04:05:32.242Z,22.6
2018-12-25T04:06:21.743Z,22.6
2018-12-25T04:07:12.300Z,22.6
2018-12-25T04:08:01.607Z,22.6
2018-12-25T04:08:51.834Z,22.6
2018-12-25T04:09:42.208Z,22.6
2018-12-25T04:10:31.119Z,22.6
2018-12-25T04:11:22.052Z,22.6
2018-12-25T04:12:11.522Z,22.6
2018-12-25T04:13:01.836Z,22.6
2018-12-25T04:13:52.547Z,22.6
2018-12-25T04:14:42.735Z,22.6
2018-12-25T04:15:32.630Z,22.6
2018-12-25T04:16:22.623Z,22.6
2018-12-25T04:17:12.383Z,22.7
2018-12-25T04:18:02.737Z,22.7
2018-12-25T04:18:52.497Z,22.7
2018-12-25T04:19:42.543Z,22.7
2018-12-25T04:20:32.869Z,22.7
2018-12-25T04:21:22.020Z,22.7
2018-12-25T04:22:12.969Z,22.8
2018-12-25T04:23:03.325Z,22.8
2018-12-25T04:23:53.413Z,22.8
2018-12-25T04:24:43.187Z,22.8
2018-12-25T04:25:33.281Z,22.8
2018-12-25T04:26:22.446Z,22.8
2018-12-25T04:27:13.081Z,22.8
2018-12-25T04:28:02.829Z,22.8
2018-12-25T04:28:53.435Z,22.8
2018-12-25T04:29:43.774Z,22.8
2018-12-25T04:30:34.207Z,22.8
2018-12-25T04:31:23.532Z,22.8
2018-12-25T04:32:13.672Z,22.8
2018-12-25T04:33:03.716Z,22.7
2018-12-25T04:33:53.208Z,22.7
2018-12-25T04:34:43.275Z,22.6
2018-12-25T04:35:33.941Z,22.6
2018-12-25T04:36:23.956Z,22.6
2018-12-25T04:37:14.296Z,22.5
2018-12-25T04:38:03.598Z,22.5
2018-12-25T04:38:53.918Z,22.4
2018-12-25T04:39:43.954Z,22.4
2018-12-25T04:40:34.265Z,22.4
2018-12-25T04:41:24.828Z,22.4
2018-12-25T04:42:13.058Z,22.4
2018-12-25T04:43:04.238Z,22.4
2018-12-25T04:43:54.038Z,22.4
2018-12-25T04:44:43.970Z,22.4
2018-12-25T05:01:59.599Z,22.8
2018-12-25T05:02:49.691Z,22.8
2018-12-25T05:03:40.803Z,22.8
2018-12-25T05:04:30.071Z,22.8
2018-12-25T05:05:19.846Z,22.8
2018-12-25T05:06:10.208Z,22.8
2018-12-25T05:07:00.898Z,22.8
2018-12-25T05:07:50.590Z,22.8
2018-12-25T05:08:40.868Z,22.7
2018-12-25T05:09:31.414Z,22.7
2018-12-25T05:10:20.814Z,22.7
2018-12-25T05:11:11.148Z,22.7
2018-12-25T05:12:00.844Z,22.6
2018-12-25T05:12:50.868Z,22.6
2018-12-25T05:13:40.623Z,22.6
2018-12-25T05:14:31.710Z,22.6
2018-12-25T05:15:21.515Z,22.5
2018-12-25T05:16:11.066Z,22.5
2018-12-25T05:17:01.663Z,22.5
2018-12-25T05:17:51.968Z,22.5
2018-12-25T05:18:41.230Z,22.4
2018-12-25T05:19:31.562Z,22.4
2018-12-25T05:20:20.604Z,22.4
2018-12-25T05:21:10.290Z,22.4
2018-12-25T05:22:02.322Z,22.4
2018-12-25T05:22:51.597Z,22.4
2018-12-25T05:23:41.578Z,22.4
2018-12-25T05:24:31.614Z,22.4
2018-12-25T05:25:21.790Z,22.4
2018-12-25T05:26:11.474Z,22.4
2018-12-25T05:27:01.777Z,22.5
2018-12-25T05:27:52.174Z,22.4
2018-12-25T05:28:41.919Z,22.4
2018-12-25T05:29:31.772Z,22.5
2018-12-25T05:30:21.745Z,22.5
2018-12-25T05:31:11.542Z,22.6
2018-12-25T05:32:01.582Z,22.6
2018-12-25T05:32:52.814Z,22.6
2018-12-25T05:33:42.045Z,22.6
2018-12-25T05:34:32.652Z,22.6
2018-12-25T05:35:21.880Z,22.7
2018-12-25T05:36:12.467Z,22.7
2018-12-25T05:37:02.249Z,22.7
2018-12-25T05:37:52.853Z,22.8
2018-12-25T05:38:42.971Z,22.7
2018-12-25T05:39:32.461Z,22.8
2018-12-25T05:40:22.083Z,22.7
2018-12-25T05:41:12.349Z,22.7
2018-12-25T05:42:01.803Z,22.7
2018-12-25T05:42:52.954Z,22.7
2018-12-25T05:43:43.206Z,22.6
2018-12-25T05:44:33.356Z,22.6
2018-12-25T05:45:23.673Z,22.6
2018-12-25T05:46:13.778Z,22.6
2018-12-25T05:47:02.918Z,22.6
2018-12-25T05:47:53.779Z,22.6
2018-12-25T05:48:43.260Z,22.6
2018-12-25T05:49:33.358Z,22.6
2018-12-25T05:50:23.926Z,22.6
2018-12-25T05:51:13.520Z,22.6
2018-12-25T05:52:02.981Z,22.6
2018-12-25T05:52:53.575Z,22.6
2018-12-25T05:53:44.184Z,22.6
2018-12-25T05:54:33.408Z,22.6
2018-12-25T05:55:25.710Z,22.6
2018-12-25T05:56:14.078Z,22.7
2018-12-25T05:57:04.528Z,22.7
2018-12-25T05:57:53.773Z,22.7
2018-12-25T05:58:44.225Z,22.7
2018-12-25T05:59:34.098Z,22.7
2018-12-25T06:00:24.166Z,22.7
2018-12-25T06:01:13.125Z,22.8
2018-12-25T06:02:03.791Z,22.8
2018-12-25T06:02:52.950Z,22.8
2018-12-25T06:03:44.702Z,22.8
2018-12-25T06:04:34.515Z,22.8
2018-12-25T06:05:23.125Z,22.8
2018-12-25T06:06:12.617Z,22.8
2018-12-25T06:07:03.898Z,22.8
2018-12-25T06:07:54.752Z,22.8
2018-12-25T06:08:46.157Z,22.8
2018-12-25T06:09:35.100Z,22.8
2018-12-25T06:10:24.872Z,22.8
2018-12-25T06:11:14.630Z,22.8
2018-12-25T06:12:03.872Z,22.7
2018-12-25T06:12:54.457Z,22.7
2018-12-25T06:13:45.111Z,22.7
2018-12-25T06:14:34.585Z,22.6
2018-12-25T06:15:25.662Z,22.6
2018-12-25T06:16:15.224Z,22.6
2018-12-25T06:17:05.529Z,22.6
2018-12-25T06:17:54.824Z,22.5
2018-12-25T06:18:45.939Z,22.5
2018-12-25T06:19:35.400Z,22.4
2018-12-25T06:20:25.810Z,22.4
2018-12-25T06:21:15.037Z,22.4
2018-12-25T06:22:04.744Z,22.4
2018-12-25T06:22:55.599Z,22.4
2018-12-25T06:23:45.653Z,22.4
2018-12-25T06:24:35.738Z,22.4
2018-12-25T06:25:26.171Z,22.4
2018-12-25T06:26:16.131Z,22.2
2018-12-25T06:27:05.946Z,22.1
2018-12-25T06:27:55.696Z,22
2018-12-25T06:28:46.348Z,21.9
2018-12-25T06:29:36.347Z,21.8
2018-12-25T06:30:26.439Z,21.8
2018-12-25T06:31:16.190Z,21.8
2018-12-25T06:32:05.344Z,21.8
2018-12-25T06:32:55.293Z,21.7
2018-12-25T06:33:46.648Z,21.7
2018-12-25T06:34:36.156Z,21.7
2018-12-25T06:35:27.088Z,21.7
2018-12-25T06:36:16.871Z,21.7
2018-12-25T06:37:06.613Z,21.8
2018-12-25T06:37:55.433Z,21.8
2018-12-25T06:38:46.237Z,21.8
2018-12-25T06:39:36.858Z,21.8
2018-12-25T06:40:26.351Z,21.8
2018-12-25T06:41:16.348Z,21.8
2018-12-25T06:42:07.233Z,21.8
2018-12-25T06:42:57.270Z,21.8
2018-12-25T06:43:47.938Z,21.8
2018-12-25T06:44:37.378Z,21.8
2018-12-25T06:45:26.125Z,21.8
2018-12-25T06:46:17.505Z,21.8
2018-12-25T06:47:07.360Z,21.7
2018-12-25T06:47:57.225Z,21.7
2018-12-25T06:48:47.222Z,21.7
2018-12-25T06:49:36.997Z,21.6
2018-12-25T06:50:26.760Z,21.6
2018-12-25T06:51:17.782Z,21.6
2018-12-25T06:52:07.710Z,21.6
2018-12-25T06:52:56.757Z,21.6
2018-12-25T06:53:47.724Z,21.6
2018-12-25T06:54:40.740Z,21.6
2018-12-25T06:55:27.945Z,21.5
2018-12-25T06:56:17.508Z,21.5
2018-12-25T06:57:08.034Z,21.5
2018-12-25T06:57:57.927Z,21.5
2018-12-25T06:58:47.617Z,21.5
2018-12-25T06:59:38.019Z,21.5
2018-12-25T07:00:28.041Z,21.5
2018-12-25T07:01:17.759Z,21.5
2018-12-25T07:02:07.309Z,21.5
2018-12-25T07:02:57.881Z,21.5
2018-12-25T07:03:47.503Z,21.5
2018-12-25T07:04:38.616Z,21.5
2018-12-25T07:05:28.596Z,21.5
2018-12-25T07:06:17.273Z,21.6
2018-12-25T07:07:08.628Z,21.6
2018-12-25T07:07:57.758Z,21.6
2018-12-25T07:08:48.625Z,21.6
2018-12-25T07:09:38.936Z,21.6
2018-12-25T07:10:28.973Z,21.6
2018-12-25T07:11:18.775Z,21.6
2018-12-25T07:12:08.048Z,21.6
2018-12-25T07:12:58.395Z,21.6
2018-12-25T07:13:49.173Z,21.6
2018-12-25T07:14:38.042Z,21.7
2018-12-25T07:15:38.128Z,21.7
2018-12-25T07:16:19.631Z,21.7
2018-12-25T07:17:09.582Z,21.7
2018-12-25T07:17:59.690Z,21.7
2018-12-25T07:18:49.178Z,21.7
2018-12-25T07:19:40.149Z,21.7
2018-12-25T07:20:31.070Z,21.7
2018-12-25T07:21:19.635Z,21.7
2018-12-25T07:22:08.899Z,21.7
2018-12-25T07:22:59.247Z,21.6
2018-12-25T07:23:49.672Z,21.6
2018-12-25T07:24:40.119Z,21.6
2018-12-25T07:25:30.566Z,21.6
2018-12-25T07:26:20.492Z,21.6
2018-12-25T07:27:10.026Z,21.6
2018-12-25T07:28:00.466Z,21.6
2018-12-25T07:28:49.584Z,21.6
2018-12-25T07:29:39.923Z,21.6
2018-12-25T07:30:29.873Z,21.6
2018-12-25T07:31:20.281Z,21.6
2018-12-25T07:32:10.611Z,21.7
2018-12-25T07:33:00.495Z,21.7
2018-12-25T07:33:50.333Z,21.7
2018-12-25T07:34:40.868Z,21.7
2018-12-25T07:35:31.540Z,21.7
2018-12-25T07:36:20.745Z,21.7
2018-12-25T07:37:10.243Z,21.7
2018-12-25T07:38:00.300Z,21.8
2018-12-25T07:38:50.808Z,21.8
2018-12-25T07:39:40.314Z,21.8
2018-12-25T07:40:31.007Z,21.8
2018-12-25T07:41:20.845Z,21.8
2018-12-25T07:42:11.436Z,21.8
2018-12-25T07:43:01.420Z,21.8
2018-12-25T07:43:51.422Z,21.8
2018-12-25T07:44:41.220Z,21.8
2018-12-25T07:45:31.308Z,21.8
2018-12-25T07:46:20.215Z,21.8
2018-12-25T07:47:13.232Z,21.8
2018-12-25T07:48:01.444Z,21.8
2018-12-25T07:48:51.270Z,21.8
2018-12-25T07:49:41.062Z,21.8
2018-12-25T07:50:32.432Z,21.8
2018-12-25T07:51:27.720Z,21.8
2018-12-25T07:52:12.197Z,21.8
2018-12-25T07:53:02.117Z,21.8
2018-12-25T07:53:51.832Z,21.8
2018-12-25T07:54:42.177Z,21.8
2018-12-25T07:55:32.000Z,21.8
2018-12-25T07:56:22.077Z,21.8
2018-12-25T07:57:12.072Z,21.8
2018-12-25T07:58:01.852Z,21.8
2018-12-25T07:58:50.974Z,21.8
2018-12-25T07:59:41.979Z,21.8
2018-12-25T08:00:32.144Z,21.8
2018-12-25T08:01:22.519Z,21.8
2018-12-25T08:02:12.949Z,21.7
2018-12-25T08:03:02.794Z,21.6
2018-12-25T08:03:53.046Z,21.6
2018-12-25T08:04:41.207Z,21.6
2018-12-25T08:05:32.213Z,21.6
2018-12-25T08:06:23.001Z,21.5
2018-12-25T08:07:13.313Z,21.5
2018-12-25T08:08:02.826Z,21.5
2018-12-25T08:08:53.225Z,21.5
2018-12-25T08:09:43.473Z,21.5
2018-12-25T08:10:33.296Z,21.5
2018-12-25T08:11:23.321Z,21.5
2018-12-25T08:12:13.745Z,21.5
2018-12-25T08:13:03.161Z,21.5
2018-12-25T08:13:53.498Z,21.5
2018-12-25T08:14:43.291Z,21.6
2018-12-25T08:15:33.133Z,21.6
2018-12-25T08:16:23.920Z,21.7
2018-12-25T08:17:13.385Z,21.8
2018-12-25T08:18:04.043Z,21.8
2018-12-25T08:18:53.826Z,21.8
2018-12-25T08:19:43.646Z,21.8
2018-12-25T08:20:33.135Z,21.8
2018-12-25T08:21:32.623Z,21.7
2018-12-25T08:22:14.035Z,21.6
2018-12-25T08:23:09.348Z,21.6
2018-12-25T08:23:54.128Z,21.6
2018-12-25T08:24:44.315Z,21.6
2018-12-25T08:25:34.010Z,21.6
2018-12-25T08:26:24.055Z,21.6
2018-12-25T08:27:14.410Z,21.6
2018-12-25T08:28:03.350Z,21.5
2018-12-25T08:28:53.973Z,21.5
2018-12-25T08:29:43.175Z,21.5
2018-12-25T08:30:34.049Z,21.5
2018-12-25T08:31:24.137Z,21.5
2018-12-25T08:32:14.417Z,21.5
2018-12-25T08:33:04.610Z,21.5
2018-12-25T08:33:54.584Z,21.4
2018-12-25T08:34:45.177Z,21.4
2018-12-25T08:35:35.212Z,21.4
2018-12-25T08:36:24.904Z,21.4
2018-12-25T08:37:15.357Z,21.4
2018-12-25T08:38:04.591Z,21.4
2018-12-25T08:38:55.247Z,21.4
2018-12-25T08:39:44.772Z,21.4
2018-12-25T08:40:35.012Z,21.4
2018-12-25T08:41:25.374Z,21.4
2018-12-25T08:42:15.185Z,21.4
2018-12-25T08:43:04.924Z,21.4
2018-12-25T08:43:55.327Z,21.5
2018-12-25T08:44:44.849Z,21.6
2018-12-25T08:45:35.479Z,21.6
2018-12-25T08:46:25.709Z,21.6
2018-12-25T08:47:17.703Z,21.6
2018-12-25T08:48:05.533Z,21.6
2018-12-25T08:48:55.596Z,21.6
2018-12-25T08:49:46.211Z,21.6
2018-12-25T08:50:35.202Z,21.6
2018-12-25T08:51:25.998Z,21.7
2018-12-25T08:52:15.821Z,21.8
2018-12-25T08:53:06.141Z,21.7
2018-12-25T08:53:56.011Z,21.7
2018-12-25T08:54:45.998Z,21.6
2018-12-25T08:55:36.208Z,21.6
2018-12-25T08:56:25.276Z,21.6
2018-12-25T08:57:15.901Z,21.6
2018-12-25T08:58:05.976Z,21.6
2018-12-25T08:58:56.861Z,21.6
2018-12-25T08:59:46.866Z,21.6
2018-12-25T09:00:35.902Z,21.5
2018-12-25T09:16:26.610Z,21.6
2018-12-25T09:17:16.942Z,21.6
2018-12-25T09:18:05.998Z,21.6
2018-12-25T09:18:57.044Z,21.6
2018-12-25T09:19:47.124Z,21.6
2018-12-25T09:20:36.604Z,21.6
2018-12-25T09:21:28.354Z,21.6
2018-12-25T09:22:16.582Z,21.6
2018-12-25T09:23:07.046Z,21.6
2018-12-25T09:23:56.909Z,21.6
2018-12-25T09:24:47.209Z,21.6
2018-12-25T09:25:36.964Z,21.6
2018-12-25T09:26:28.126Z,21.6
2018-12-25T09:27:17.051Z,21.6
2018-12-25T09:28:07.678Z,21.5
2018-12-25T09:28:57.721Z,21.5
2018-12-25T09:29:46.939Z,21.5
2018-12-25T09:30:37.384Z,21.5
2018-12-25T09:31:28.667Z,21.5
2018-12-25T09:32:17.944Z,21.4
2018-12-25T09:33:08.113Z,21.4
2018-12-25T09:33:57.511Z,21.4
2018-12-25T09:34:49.697Z,21.4
2018-12-25T09:35:37.990Z,21.4
2018-12-25T09:36:27.911Z,21.4
2018-12-25T09:37:18.288Z,21.4
2018-12-25T09:38:08.108Z,21.4
2018-12-25T09:38:58.143Z,21.4
2018-12-25T09:39:48.162Z,21.4
2018-12-25T09:40:38.006Z,21.4
2018-12-25T09:41:28.564Z,21.4
2018-12-25T09:42:18.483Z,21.4
2018-12-25T09:43:07.616Z,21.5
2018-12-25T09:43:58.760Z,21.5
2018-12-25T09:44:48.796Z,21.5
2018-12-25T09:45:38.328Z,21.5
2018-12-25T09:46:27.465Z,21.5
2018-12-25T09:47:18.444Z,21.5
2018-12-25T09:48:17.145Z,21.6
2018-12-25T09:48:58.315Z,21.6
2018-12-25T09:49:48.660Z,21.6
2018-12-25T09:50:38.985Z,21.6
2018-12-25T09:51:28.535Z,21.6
2018-12-25T09:52:18.877Z,21.6
2018-12-25T09:53:08.607Z,21.6
2018-12-25T09:53:58.936Z,21.6
2018-12-25T09:54:48.652Z,21.6
2018-12-25T09:55:39.250Z,21.6
2018-12-25T09:56:28.745Z,21.6
2018-12-25T09:57:20.115Z,21.6
2018-12-25T09:58:09.442Z,21.6
2018-12-25T09:58:59.767Z,21.7
2018-12-25T09:59:49.559Z,21.6
2018-12-25T10:00:41.144Z,21.6
2018-12-25T10:01:30.210Z,21.6
2018-12-25T10:02:19.687Z,21.7
2018-12-25T10:03:10.064Z,21.7
2018-12-25T10:03:59.638Z,21.7
2018-12-25T10:04:49.869Z,21.7
2018-12-25T10:05:40.484Z,21.6
2018-12-25T10:06:30.632Z,21.6
2018-12-25T10:07:20.371Z,21.6
2018-12-25T10:08:10.127Z,21.6
2018-12-25T10:09:00.186Z,21.6
2018-12-25T10:09:49.301Z,21.5
2018-12-25T10:10:40.138Z,21.5
2018-12-25T10:11:30.612Z,21.5
2018-12-25T10:12:21.271Z,21.5
2018-12-25T10:13:09.453Z,21.5
2018-12-25T10:14:00.086Z,21.5
2018-12-25T10:14:51.223Z,21.5
2018-12-25T10:15:40.735Z,21.5
2018-12-25T10:16:30.728Z,21.5
2018-12-25T10:17:21.593Z,21.5
2018-12-25T10:18:09.866Z,21.5
2018-12-25T10:19:01.453Z,21.5
2018-12-25T10:19:51.007Z,21.5
2018-12-25T10:20:40.989Z,21.5
2018-12-25T10:21:31.621Z,21.6
2018-12-25T10:22:20.836Z,21.6
2018-12-25T10:23:10.946Z,21.6
2018-12-25T10:24:00.973Z,21.6
2018-12-25T10:24:53.813Z,21.6
2018-12-25T10:25:41.093Z,21.6
2018-12-25T10:26:31.454Z,21.6
2018-12-25T10:27:20.740Z,21.6
2018-12-25T10:28:11.338Z,21.6
2018-12-25T10:29:02.068Z,21.6
2018-12-25T10:29:50.269Z,21.6
2018-12-25T10:30:41.650Z,21.7
2018-12-25T10:31:31.585Z,21.8
2018-12-25T10:32:22.012Z,21.8
2018-12-25T10:33:11.319Z,21.8
2018-12-25T10:34:01.377Z,21.8
2018-12-25T10:34:51.662Z,21.8
2018-12-25T10:35:41.422Z,21.7
2018-12-25T10:36:32.317Z,21.7
2018-12-25T10:37:21.364Z,21.7
2018-12-25T10:38:12.742Z,21.6
2018-12-25T10:39:02.108Z,21.6
2018-12-25T10:39:52.112Z,21.6
2018-12-25T10:40:42.059Z,21.6
2018-12-25T10:41:32.087Z,21.6
2018-12-25T10:42:22.497Z,21.6
2018-12-25T10:43:12.529Z,21.6
2018-12-25T10:44:02.646Z,21.6
2018-12-25T10:44:52.586Z,21.7
2018-12-25T10:45:41.099Z,21.7
2018-12-25T10:46:32.256Z,21.7
2018-12-25T10:47:21.811Z,21.7
2018-12-25T10:48:12.179Z,21.7
2018-12-25T10:49:02.711Z,21.6
2018-12-25T10:49:52.294Z,21.7
2018-12-25T10:50:44.996Z,21.7
2018-12-25T10:51:32.856Z,21.6
2018-12-25T10:52:22.169Z,21.7
2018-12-25T10:53:12.951Z,21.7
2018-12-25T10:54:03.643Z,21.7
2018-12-25T10:54:53.214Z,21.7
2018-12-25T10:55:43.400Z,21.7
2018-12-25T10:56:33.193Z,21.7
2018-12-25T10:57:23.708Z,21.7
2018-12-25T10:58:13.611Z,21.6
2018-12-25T10:59:02.556Z,21.6
2018-12-25T10:59:53.630Z,21.6
2018-12-25T11:00:43.695Z,21.6
2018-12-25T11:01:34.115Z,21.6
2018-12-25T11:02:24.354Z,21.6
2018-12-25T11:03:15.986Z,21.6
2018-12-25T11:04:03.880Z,21.6
2018-12-25T11:04:54.189Z,21.6
2018-12-25T11:05:44.285Z,21.6
2018-12-25T11:06:34.362Z,21.6
2018-12-25T11:07:24.510Z,21.6
2018-12-25T11:08:13.915Z,21.5
2018-12-25T11:09:04.750Z,21.5
2018-12-25T11:09:55.190Z,21.5
2018-12-25T11:10:44.372Z,21.5
2018-12-25T11:11:34.800Z,21.5
2018-12-25T11:12:25.272Z,21.4
2018-12-25T11:13:14.352Z,21.5
2018-12-25T11:14:04.108Z,21.6
2018-12-25T11:14:56.103Z,21.6
2018-12-25T11:15:44.458Z,21.6
2018-12-25T11:16:34.749Z,21.8
2018-12-25T11:17:24.584Z,21.8
2018-12-25T11:18:14.680Z,21.8
2018-12-25T11:19:05.207Z,21.8
2018-12-25T11:19:54.427Z,21.8
2018-12-25T11:20:45.117Z,21.8
2018-12-25T11:21:35.652Z,21.8
2018-12-25T11:22:25.727Z,21.8
2018-12-25T11:23:15.534Z,21.8
2018-12-25T11:24:04.730Z,21.7
2018-12-25T11:24:55.344Z,21.8
2018-12-25T11:25:45.627Z,21.8
2018-12-25T11:26:35.474Z,21.8
2018-12-25T11:27:25.768Z,21.8
2018-12-25T11:28:15.814Z,21.7
2018-12-25T11:29:05.669Z,21.7
2018-12-25T11:29:55.945Z,21.6
2018-12-25T11:30:45.736Z,21.6
2018-12-25T11:31:35.807Z,21.6
2018-12-25T11:32:26.408Z,21.6
2018-12-25T11:33:16.176Z,21.6
2018-12-25T11:34:08.574Z,21.6
2018-12-25T11:34:55.880Z,21.6
2018-12-25T11:35:45.834Z,21.6
2018-12-25T11:36:36.136Z,21.6
2018-12-25T11:37:25.436Z,21.5
2018-12-25T11:38:15.681Z,21.5
2018-12-25T11:39:06.303Z,21.5
2018-12-25T11:39:56.841Z,21.5
2018-12-25T11:40:46.426Z,21.5
2018-12-25T11:41:36.508Z,21.4
2018-12-25T11:42:26.245Z,21.5
2018-12-25T11:43:16.128Z,21.4
2018-12-25T11:44:06.728Z,21.4
2018-12-25T11:44:56.731Z,21.4
2018-12-25T11:45:46.732Z,21.4
2018-12-25T11:46:37.388Z,21.4
2018-12-25T11:47:26.940Z,21.4
2018-12-25T11:48:17.222Z,21.4
2018-12-25T11:49:07.010Z,21.4
2018-12-25T11:49:56.790Z,21.4
2018-12-25T11:50:46.638Z,21.4
2018-12-25T11:51:37.483Z,21.4
2018-12-25T11:52:34.723Z,21.4
2018-12-25T11:53:17.658Z,21.4
2018-12-25T11:54:07.964Z,21.4
2018-12-25T11:54:57.399Z,21.4